sensor_id;sensor_type;location;lat;lon;timestamp;P1;durP1;ratioP1;P2;durP2;ratioP2
66129;SDS011;52930;51.464;11.764;2023-03-01T00:01:06;21.58;;;8.70;;
66129;SDS011;52930;51.464;11.764;2023-03-01T00:03:33;21.40;;;8.65;;
66129;SDS011;52930;51.464;11.764;2023-03-01T00:05:59;22.35;;;9.02;;
66129;SDS011;52930;51.464;11.764;2023-03-01T00:08:25;20.40;;;8.67;;
66129;SDS011;52930;51.464;11.764;2023-03-01T00:11:01;19.63;;;7.72;;
66129;SDS011;52930;51.464;11.764;2023-03-01T00:13:33;26.60;;;8.52;;
66129;SDS011;52930;51.464;11.764;2023-03-01T00:16:00;21.63;;;9.13;;
66129;SDS011;52930;51.464;11.764;2023-03-01T00:18:27;19.17;;;8.50;;
66129;SDS011;52930;51.464;11.764;2023-03-01T00:20:52;20.85;;;8.65;;
66129;SDS011;52930;51.464;11.764;2023-03-01T00:23:18;22.63;;;8.63;;
66129;SDS011;52930;51.464;11.764;2023-03-01T00:25:44;23.13;;;8.93;;
66129;SDS011;52930;51.464;11.764;2023-03-01T00:28:10;22.27;;;8.80;;
66129;SDS011;52930;51.464;11.764;2023-03-01T00:30:35;23.87;;;9.00;;
66129;SDS011;52930;51.464;11.764;2023-03-01T00:33:00;22.70;;;9.23;;
66129;SDS011;52930;51.464;11.764;2023-03-01T00:35:26;19.37;;;8.33;;
66129;SDS011;52930;51.464;11.764;2023-03-01T00:37:51;23.83;;;8.40;;
66129;SDS011;52930;51.464;11.764;2023-03-01T00:40:23;24.48;;;9.73;;
66129;SDS011;52930;51.464;11.764;2023-03-01T00:42:49;24.50;;;9.80;;
66129;SDS011;52930;51.464;11.764;2023-03-01T00:45:14;26.67;;;9.05;;
66129;SDS011;52930;51.464;11.764;2023-03-01T00:47:39;22.27;;;9.20;;
66129;SDS011;52930;51.464;11.764;2023-03-01T00:50:05;25.53;;;9.53;;
66129;SDS011;52930;51.464;11.764;2023-03-01T00:52:30;31.20;;;9.47;;
66129;SDS011;52930;51.464;11.764;2023-03-01T00:54:56;26.15;;;9.43;;
66129;SDS011;52930;51.464;11.764;2023-03-01T00:57:22;27.03;;;9.20;;
66129;SDS011;52930;51.464;11.764;2023-03-01T00:59:48;27.05;;;8.68;;
66129;SDS011;52930;51.464;11.764;2023-03-01T01:02:13;23.83;;;9.40;;
66129;SDS011;52930;51.464;11.764;2023-03-01T01:04:38;23.07;;;9.27;;
66129;SDS011;52930;51.464;11.764;2023-03-01T01:07:04;28.97;;;9.73;;
66129;SDS011;52930;51.464;11.764;2023-03-01T01:09:30;27.33;;;9.63;;
66129;SDS011;52930;51.464;11.764;2023-03-01T01:11:56;24.40;;;8.37;;
66129;SDS011;52930;51.464;11.764;2023-03-01T01:14:21;22.40;;;8.87;;
66129;SDS011;52930;51.464;11.764;2023-03-01T01:16:47;24.35;;;9.43;;
66129;SDS011;52930;51.464;11.764;2023-03-01T01:19:12;23.45;;;9.15;;
66129;SDS011;52930;51.464;11.764;2023-03-01T01:21:38;23.87;;;8.93;;
66129;SDS011;52930;51.464;11.764;2023-03-01T01:24:04;24.10;;;8.60;;
66129;SDS011;52930;51.464;11.764;2023-03-01T01:26:31;22.87;;;9.17;;
66129;SDS011;52930;51.464;11.764;2023-03-01T01:28:57;24.02;;;9.13;;
66129;SDS011;52930;51.464;11.764;2023-03-01T01:31:24;21.85;;;8.80;;
66129;SDS011;52930;51.464;11.764;2023-03-01T01:33:50;21.27;;;8.60;;
66129;SDS011;52930;51.464;11.764;2023-03-01T01:36:16;22.85;;;8.57;;
66129;SDS011;52930;51.464;11.764;2023-03-01T01:38:41;23.70;;;8.60;;
66129;SDS011;52930;51.464;11.764;2023-03-01T01:41:07;25.03;;;9.43;;
66129;SDS011;52930;51.464;11.764;2023-03-01T01:43:37;23.00;;;9.10;;
66129;SDS011;52930;51.464;11.764;2023-03-01T01:46:52;23.25;;;8.98;;
66129;SDS011;52930;51.464;11.764;2023-03-01T01:48:58;23.55;;;8.10;;
66129;SDS011;52930;51.464;11.764;2023-03-01T01:51:28;21.10;;;8.27;;
66129;SDS011;52930;51.464;11.764;2023-03-01T01:54:03;23.90;;;8.63;;
66129;SDS011;52930;51.464;11.764;2023-03-01T01:56:41;20.45;;;7.18;;
66129;SDS011;52930;51.464;11.764;2023-03-01T01:59:09;24.55;;;9.10;;
66129;SDS011;52930;51.464;11.764;2023-03-01T02:01:35;22.83;;;8.23;;
66129;SDS011;52930;51.464;11.764;2023-03-01T02:04:00;20.65;;;7.85;;
66129;SDS011;52930;51.464;11.764;2023-03-01T02:06:30;25.27;;;8.48;;
66129;SDS011;52930;51.464;11.764;2023-03-01T02:09:06;20.92;;;7.55;;
66129;SDS011;52930;51.464;11.764;2023-03-01T02:11:33;20.07;;;7.83;;
66129;SDS011;52930;51.464;11.764;2023-03-01T02:13:59;21.15;;;7.78;;
66129;SDS011;52930;51.464;11.764;2023-03-01T02:16:25;20.13;;;8.10;;
66129;SDS011;52930;51.464;11.764;2023-03-01T02:18:50;20.17;;;7.53;;
66129;SDS011;52930;51.464;11.764;2023-03-01T02:21:23;22.33;;;8.07;;
66129;SDS011;52930;51.464;11.764;2023-03-01T02:23:52;21.23;;;7.63;;
66129;SDS011;52930;51.464;11.764;2023-03-01T02:26:21;23.25;;;8.88;;
66129;SDS011;52930;51.464;11.764;2023-03-01T02:28:50;23.10;;;8.38;;
66129;SDS011;52930;51.464;11.764;2023-03-01T02:31:17;20.33;;;8.27;;
66129;SDS011;52930;51.464;11.764;2023-03-01T02:34:03;23.77;;;7.40;;
66129;SDS011;52930;51.464;11.764;2023-03-01T02:36:31;20.20;;;7.65;;
66129;SDS011;52930;51.464;11.764;2023-03-01T02:39:02;20.67;;;7.70;;
66129;SDS011;52930;51.464;11.764;2023-03-01T02:41:30;18.47;;;7.27;;
66129;SDS011;52930;51.464;11.764;2023-03-01T02:43:56;17.85;;;7.82;;
66129;SDS011;52930;51.464;11.764;2023-03-01T02:46:22;17.75;;;7.07;;
66129;SDS011;52930;51.464;11.764;2023-03-01T02:48:51;22.75;;;8.27;;
66129;SDS011;52930;51.464;11.764;2023-03-01T02:51:26;21.05;;;7.60;;
66129;SDS011;52930;51.464;11.764;2023-03-01T02:54:22;20.92;;;7.63;;
66129;SDS011;52930;51.464;11.764;2023-03-01T02:56:50;22.25;;;7.93;;
66129;SDS011;52930;51.464;11.764;2023-03-01T02:59:18;23.33;;;7.70;;
66129;SDS011;52930;51.464;11.764;2023-03-01T03:01:46;19.65;;;7.72;;
66129;SDS011;52930;51.464;11.764;2023-03-01T03:04:13;18.40;;;7.40;;
66129;SDS011;52930;51.464;11.764;2023-03-01T03:06:42;17.70;;;7.03;;
66129;SDS011;52930;51.464;11.764;2023-03-01T03:09:09;20.92;;;7.70;;
66129;SDS011;52930;51.464;11.764;2023-03-01T03:11:35;20.05;;;8.02;;
66129;SDS011;52930;51.464;11.764;2023-03-01T03:14:01;16.52;;;6.70;;
66129;SDS011;52930;51.464;11.764;2023-03-01T03:16:27;17.93;;;7.07;;
66129;SDS011;52930;51.464;11.764;2023-03-01T03:18:54;19.85;;;7.35;;
66129;SDS011;52930;51.464;11.764;2023-03-01T03:21:30;22.48;;;7.15;;
66129;SDS011;52930;51.464;11.764;2023-03-01T03:23:57;20.42;;;7.53;;
66129;SDS011;52930;51.464;11.764;2023-03-01T03:26:22;19.43;;;7.10;;
66129;SDS011;52930;51.464;11.764;2023-03-01T03:28:48;24.80;;;7.33;;
66129;SDS011;52930;51.464;11.764;2023-03-01T03:31:13;22.90;;;8.53;;
66129;SDS011;52930;51.464;11.764;2023-03-01T03:33:38;18.93;;;7.63;;
66129;SDS011;52930;51.464;11.764;2023-03-01T03:36:04;18.60;;;7.00;;
66129;SDS011;52930;51.464;11.764;2023-03-01T03:38:29;18.02;;;6.75;;
66129;SDS011;52930;51.464;11.764;2023-03-01T03:41:02;21.03;;;6.83;;
66129;SDS011;52930;51.464;11.764;2023-03-01T03:43:30;20.80;;;7.57;;
66129;SDS011;52930;51.464;11.764;2023-03-01T03:45:57;24.95;;;7.53;;
66129;SDS011;52930;51.464;11.764;2023-03-01T03:48:23;18.77;;;6.57;;
66129;SDS011;52930;51.464;11.764;2023-03-01T03:50:50;15.90;;;6.70;;
66129;SDS011;52930;51.464;11.764;2023-03-01T03:53:17;20.58;;;7.25;;
66129;SDS011;52930;51.464;11.764;2023-03-01T03:55:42;17.37;;;6.70;;
66129;SDS011;52930;51.464;11.764;2023-03-01T03:58:09;20.02;;;6.60;;
66129;SDS011;52930;51.464;11.764;2023-03-01T04:00:39;20.38;;;7.38;;
66129;SDS011;52930;51.464;11.764;2023-03-01T04:03:06;20.08;;;8.07;;
66129;SDS011;52930;51.464;11.764;2023-03-01T04:05:32;21.63;;;7.63;;
66129;SDS011;52930;51.464;11.764;2023-03-01T04:07:58;22.27;;;7.57;;
66129;SDS011;52930;51.464;11.764;2023-03-01T04:10:27;18.20;;;7.35;;
66129;SDS011;52930;51.464;11.764;2023-03-01T04:12:58;19.63;;;8.07;;
66129;SDS011;52930;51.464;11.764;2023-03-01T04:15:24;18.33;;;6.47;;
66129;SDS011;52930;51.464;11.764;2023-03-01T04:17:51;17.83;;;7.00;;
66129;SDS011;52930;51.464;11.764;2023-03-01T04:20:18;19.05;;;6.70;;
66129;SDS011;52930;51.464;11.764;2023-03-01T04:22:50;20.48;;;7.10;;
66129;SDS011;52930;51.464;11.764;2023-03-01T04:25:22;18.30;;;7.07;;
66129;SDS011;52930;51.464;11.764;2023-03-01T04:27:48;19.60;;;7.20;;
66129;SDS011;52930;51.464;11.764;2023-03-01T04:30:13;28.73;;;7.43;;
66129;SDS011;52930;51.464;11.764;2023-03-01T04:32:39;18.77;;;6.68;;
66129;SDS011;52930;51.464;11.764;2023-03-01T04:35:04;15.97;;;6.07;;
66129;SDS011;52930;51.464;11.764;2023-03-01T04:37:29;21.73;;;7.37;;
66129;SDS011;52930;51.464;11.764;2023-03-01T04:39:55;19.23;;;6.40;;
66129;SDS011;52930;51.464;11.764;2023-03-01T04:42:20;17.53;;;6.40;;
66129;SDS011;52930;51.464;11.764;2023-03-01T04:44:45;15.70;;;6.27;;
66129;SDS011;52930;51.464;11.764;2023-03-01T04:47:11;21.17;;;7.13;;
66129;SDS011;52930;51.464;11.764;2023-03-01T04:49:37;19.48;;;6.10;;
66129;SDS011;52930;51.464;11.764;2023-03-01T04:52:02;17.80;;;6.67;;
66129;SDS011;52930;51.464;11.764;2023-03-01T04:54:29;22.35;;;6.68;;
66129;SDS011;52930;51.464;11.764;2023-03-01T04:56:55;16.08;;;6.32;;
66129;SDS011;52930;51.464;11.764;2023-03-01T04:59:20;17.57;;;6.70;;
66129;SDS011;52930;51.464;11.764;2023-03-01T05:01:49;25.08;;;6.55;;
66129;SDS011;52930;51.464;11.764;2023-03-01T05:04:15;19.40;;;6.38;;
66129;SDS011;52930;51.464;11.764;2023-03-01T05:06:40;16.20;;;6.40;;
66129;SDS011;52930;51.464;11.764;2023-03-01T05:09:05;17.17;;;6.33;;
66129;SDS011;52930;51.464;11.764;2023-03-01T05:11:31;17.67;;;6.47;;
66129;SDS011;52930;51.464;11.764;2023-03-01T05:14:00;17.90;;;6.22;;
66129;SDS011;52930;51.464;11.764;2023-03-01T05:16:29;18.95;;;5.85;;
66129;SDS011;52930;51.464;11.764;2023-03-01T05:18:56;14.80;;;6.03;;
66129;SDS011;52930;51.464;11.764;2023-03-01T05:21:21;18.52;;;6.22;;
66129;SDS011;52930;51.464;11.764;2023-03-01T05:23:47;17.53;;;6.80;;
66129;SDS011;52930;51.464;11.764;2023-03-01T05:26:12;21.20;;;7.00;;
66129;SDS011;52930;51.464;11.764;2023-03-01T05:28:38;19.20;;;7.03;;
66129;SDS011;52930;51.464;11.764;2023-03-01T05:31:04;20.27;;;7.45;;
66129;SDS011;52930;51.464;11.764;2023-03-01T05:33:34;17.33;;;6.37;;
66129;SDS011;52930;51.464;11.764;2023-03-01T05:36:01;20.60;;;6.72;;
66129;SDS011;52930;51.464;11.764;2023-03-01T05:38:26;18.03;;;7.17;;
66129;SDS011;52930;51.464;11.764;2023-03-01T05:40:51;19.77;;;7.17;;
66129;SDS011;52930;51.464;11.764;2023-03-01T05:43:17;18.63;;;7.23;;
66129;SDS011;52930;51.464;11.764;2023-03-01T05:45:43;19.17;;;7.03;;
66129;SDS011;52930;51.464;11.764;2023-03-01T05:48:09;22.08;;;7.80;;
66129;SDS011;52930;51.464;11.764;2023-03-01T05:50:37;19.85;;;7.07;;
66129;SDS011;52930;51.464;11.764;2023-03-01T05:53:09;21.47;;;8.17;;
66129;SDS011;52930;51.464;11.764;2023-03-01T05:55:36;20.55;;;7.97;;
66129;SDS011;52930;51.464;11.764;2023-03-01T05:58:03;21.05;;;7.50;;
66129;SDS011;52930;51.464;11.764;2023-03-01T06:00:30;29.00;;;9.48;;
66129;SDS011;52930;51.464;11.764;2023-03-01T06:02:56;22.87;;;9.10;;
66129;SDS011;52930;51.464;11.764;2023-03-01T06:05:22;25.80;;;8.15;;
66129;SDS011;52930;51.464;11.764;2023-03-01T06:07:48;20.88;;;8.88;;
66129;SDS011;52930;51.464;11.764;2023-03-01T06:10:14;24.00;;;8.20;;
66129;SDS011;52930;51.464;11.764;2023-03-01T06:12:40;26.25;;;8.60;;
66129;SDS011;52930;51.464;11.764;2023-03-01T06:15:06;23.70;;;8.45;;
66129;SDS011;52930;51.464;11.764;2023-03-01T06:17:34;20.52;;;8.23;;
66129;SDS011;52930;51.464;11.764;2023-03-01T06:20:03;19.80;;;7.43;;
66129;SDS011;52930;51.464;11.764;2023-03-01T06:22:29;20.85;;;8.00;;
66129;SDS011;52930;51.464;11.764;2023-03-01T06:24:55;21.57;;;8.43;;
66129;SDS011;52930;51.464;11.764;2023-03-01T06:27:20;23.67;;;8.87;;
66129;SDS011;52930;51.464;11.764;2023-03-01T06:29:45;24.83;;;8.23;;
66129;SDS011;52930;51.464;11.764;2023-03-01T06:32:11;25.40;;;8.30;;
66129;SDS011;52930;51.464;11.764;2023-03-01T06:34:36;20.77;;;8.07;;
66129;SDS011;52930;51.464;11.764;2023-03-01T06:37:01;21.27;;;7.73;;
66129;SDS011;52930;51.464;11.764;2023-03-01T06:39:30;22.35;;;7.70;;
66129;SDS011;52930;51.464;11.764;2023-03-01T06:41:56;25.67;;;8.32;;
66129;SDS011;52930;51.464;11.764;2023-03-01T06:44:21;20.70;;;8.13;;
66129;SDS011;52930;51.464;11.764;2023-03-01T06:46:46;20.87;;;8.20;;
66129;SDS011;52930;51.464;11.764;2023-03-01T06:49:12;17.87;;;7.30;;
66129;SDS011;52930;51.464;11.764;2023-03-01T06:51:37;14.40;;;6.33;;
66129;SDS011;52930;51.464;11.764;2023-03-01T06:54:03;19.67;;;6.77;;
66129;SDS011;52930;51.464;11.764;2023-03-01T06:56:29;18.98;;;6.85;;
66129;SDS011;52930;51.464;11.764;2023-03-01T06:58:55;17.20;;;7.38;;
66129;SDS011;52930;51.464;11.764;2023-03-01T07:01:20;19.77;;;7.70;;
66129;SDS011;52930;51.464;11.764;2023-03-01T07:03:46;21.10;;;9.00;;
66129;SDS011;52930;51.464;11.764;2023-03-01T07:06:11;16.47;;;7.80;;
66129;SDS011;52930;51.464;11.764;2023-03-01T07:08:37;16.30;;;7.72;;
66129;SDS011;52930;51.464;11.764;2023-03-01T07:11:02;20.63;;;7.57;;
66129;SDS011;52930;51.464;11.764;2023-03-01T07:13:28;18.57;;;8.83;;
66129;SDS011;52930;51.464;11.764;2023-03-01T07:15:54;16.50;;;7.43;;
66129;SDS011;52930;51.464;11.764;2023-03-01T07:18:19;16.90;;;7.80;;
66129;SDS011;52930;51.464;11.764;2023-03-01T07:20:45;16.03;;;7.53;;
66129;SDS011;52930;51.464;11.764;2023-03-01T07:23:10;17.07;;;7.67;;
66129;SDS011;52930;51.464;11.764;2023-03-01T07:25:35;16.90;;;7.20;;
66129;SDS011;52930;51.464;11.764;2023-03-01T07:28:01;23.10;;;8.73;;
66129;SDS011;52930;51.464;11.764;2023-03-01T07:30:26;18.33;;;8.00;;
66129;SDS011;52930;51.464;11.764;2023-03-01T07:32:53;16.10;;;7.13;;
66129;SDS011;52930;51.464;11.764;2023-03-01T07:35:19;17.52;;;7.53;;
66129;SDS011;52930;51.464;11.764;2023-03-01T07:37:44;17.40;;;7.53;;
66129;SDS011;52930;51.464;11.764;2023-03-01T07:40:10;16.77;;;7.75;;
66129;SDS011;52930;51.464;11.764;2023-03-01T07:42:36;15.75;;;7.50;;
66129;SDS011;52930;51.464;11.764;2023-03-01T07:45:01;16.77;;;7.13;;
66129;SDS011;52930;51.464;11.764;2023-03-01T07:47:26;16.52;;;7.43;;
66129;SDS011;52930;51.464;11.764;2023-03-01T07:49:52;15.97;;;7.23;;
66129;SDS011;52930;51.464;11.764;2023-03-01T07:52:17;17.30;;;7.30;;
66129;SDS011;52930;51.464;11.764;2023-03-01T07:54:42;17.87;;;7.20;;
66129;SDS011;52930;51.464;11.764;2023-03-01T07:57:09;16.58;;;7.20;;
66129;SDS011;52930;51.464;11.764;2023-03-01T07:59:35;16.27;;;7.17;;
66129;SDS011;52930;51.464;11.764;2023-03-01T08:02:00;18.63;;;8.00;;
66129;SDS011;52930;51.464;11.764;2023-03-01T08:04:25;16.83;;;7.43;;
66129;SDS011;52930;51.464;11.764;2023-03-01T08:06:51;17.85;;;8.05;;
66129;SDS011;52930;51.464;11.764;2023-03-01T08:09:17;17.00;;;7.47;;
66129;SDS011;52930;51.464;11.764;2023-03-01T08:11:43;18.63;;;7.77;;
66129;SDS011;52930;51.464;11.764;2023-03-01T08:14:08;18.10;;;7.73;;
66129;SDS011;52930;51.464;11.764;2023-03-01T08:16:35;16.92;;;7.75;;
66129;SDS011;52930;51.464;11.764;2023-03-01T08:19:07;16.77;;;7.33;;
66129;SDS011;52930;51.464;11.764;2023-03-01T08:21:34;17.35;;;7.15;;
66129;SDS011;52930;51.464;11.764;2023-03-01T08:24:00;18.57;;;7.80;;
66129;SDS011;52930;51.464;11.764;2023-03-01T08:26:26;18.83;;;8.15;;
66129;SDS011;52930;51.464;11.764;2023-03-01T08:28:51;18.40;;;8.60;;
66129;SDS011;52930;51.464;11.764;2023-03-01T08:31:21;18.47;;;8.20;;
66129;SDS011;52930;51.464;11.764;2023-03-01T08:33:48;18.58;;;7.20;;
66129;SDS011;52930;51.464;11.764;2023-03-01T08:36:25;23.15;;;9.00;;
66129;SDS011;52930;51.464;11.764;2023-03-01T08:38:52;19.63;;;8.05;;
66129;SDS011;52930;51.464;11.764;2023-03-01T08:41:18;18.07;;;7.40;;
66129;SDS011;52930;51.464;11.764;2023-03-01T08:43:44;19.85;;;8.27;;
66129;SDS011;52930;51.464;11.764;2023-03-01T08:46:10;20.97;;;8.77;;
66129;SDS011;52930;51.464;11.764;2023-03-01T08:48:35;18.90;;;8.20;;
66129;SDS011;52930;51.464;11.764;2023-03-01T08:51:08;18.43;;;8.07;;
66129;SDS011;52930;51.464;11.764;2023-03-01T08:53:37;19.52;;;8.30;;
66129;SDS011;52930;51.464;11.764;2023-03-01T08:56:03;20.98;;;8.43;;
66129;SDS011;52930;51.464;11.764;2023-03-01T08:58:29;18.43;;;8.10;;
66129;SDS011;52930;51.464;11.764;2023-03-01T09:00:54;18.70;;;7.50;;
66129;SDS011;52930;51.464;11.764;2023-03-01T09:03:21;22.13;;;9.60;;
66129;SDS011;52930;51.464;11.764;2023-03-01T09:05:47;18.75;;;8.68;;
66129;SDS011;52930;51.464;11.764;2023-03-01T09:08:15;15.70;;;6.93;;
66129;SDS011;52930;51.464;11.764;2023-03-01T09:10:40;19.13;;;8.57;;
66129;SDS011;52930;51.464;11.764;2023-03-01T09:13:06;18.80;;;7.72;;
66129;SDS011;52930;51.464;11.764;2023-03-01T09:15:31;20.05;;;9.63;;
66129;SDS011;52930;51.464;11.764;2023-03-01T09:17:58;16.97;;;6.83;;
66129;SDS011;52930;51.464;11.764;2023-03-01T09:20:24;19.75;;;8.10;;
66129;SDS011;52930;51.464;11.764;2023-03-01T09:22:49;21.07;;;8.43;;
66129;SDS011;52930;51.464;11.764;2023-03-01T09:25:14;18.07;;;7.90;;
66129;SDS011;52930;51.464;11.764;2023-03-01T09:27:40;22.37;;;8.77;;
66129;SDS011;52930;51.464;11.764;2023-03-01T09:30:05;17.87;;;6.93;;
66129;SDS011;52930;51.464;11.764;2023-03-01T09:32:31;17.35;;;8.05;;
66129;SDS011;52930;51.464;11.764;2023-03-01T09:34:57;18.67;;;8.60;;
66129;SDS011;52930;51.464;11.764;2023-03-01T09:37:32;18.83;;;7.85;;
66129;SDS011;52930;51.464;11.764;2023-03-01T09:39:58;33.55;;;11.80;;
66129;SDS011;52930;51.464;11.764;2023-03-01T09:42:23;27.57;;;10.50;;
66129;SDS011;52930;51.464;11.764;2023-03-01T09:44:54;27.37;;;11.20;;
66129;SDS011;52930;51.464;11.764;2023-03-01T09:47:26;30.13;;;10.60;;
66129;SDS011;52930;51.464;11.764;2023-03-01T09:49:58;24.80;;;9.60;;
66129;SDS011;52930;51.464;11.764;2023-03-01T09:52:29;18.10;;;7.50;;
66129;SDS011;52930;51.464;11.764;2023-03-01T09:54:59;16.38;;;7.70;;
66129;SDS011;52930;51.464;11.764;2023-03-01T09:57:30;17.33;;;7.87;;
66129;SDS011;52930;51.464;11.764;2023-03-01T10:02:38;17.70;;;7.53;;
66129;SDS011;52930;51.464;11.764;2023-03-01T10:05:13;21.58;;;8.05;;
66129;SDS011;52930;51.464;11.764;2023-03-01T10:13:15;16.63;;;7.33;;
66129;SDS011;52930;51.464;11.764;2023-03-01T10:15:47;19.08;;;7.53;;
66129;SDS011;52930;51.464;11.764;2023-03-01T10:18:21;19.15;;;7.03;;
66129;SDS011;52930;51.464;11.764;2023-03-01T10:20:53;15.63;;;6.80;;
66129;SDS011;52930;51.464;11.764;2023-03-01T10:23:27;16.35;;;6.70;;
66129;SDS011;52930;51.464;11.764;2023-03-01T10:28:29;14.88;;;5.93;;
66129;SDS011;52930;51.464;11.764;2023-03-01T10:30:57;21.20;;;7.97;;
66129;SDS011;52930;51.464;11.764;2023-03-01T10:33:24;20.13;;;8.02;;
66129;SDS011;52930;51.464;11.764;2023-03-01T10:35:57;18.13;;;7.43;;
66129;SDS011;52930;51.464;11.764;2023-03-01T10:38:23;19.53;;;8.00;;
66129;SDS011;52930;51.464;11.764;2023-03-01T10:40:58;22.20;;;7.60;;
66129;SDS011;52930;51.464;11.764;2023-03-01T10:43:27;15.82;;;7.60;;
66129;SDS011;52930;51.464;11.764;2023-03-01T10:45:57;27.27;;;13.15;;
66129;SDS011;52930;51.464;11.764;2023-03-01T10:48:23;26.23;;;10.53;;
66129;SDS011;52930;51.464;11.764;2023-03-01T10:51:04;65.47;;;22.02;;
66129;SDS011;52930;51.464;11.764;2023-03-01T10:56:33;22.15;;;10.45;;
66129;SDS011;52930;51.464;11.764;2023-03-01T10:58:59;20.38;;;9.50;;
66129;SDS011;52930;51.464;11.764;2023-03-01T11:01:34;29.88;;;13.43;;
66129;SDS011;52930;51.464;11.764;2023-03-01T11:06:32;21.13;;;9.30;;
66129;SDS011;52930;51.464;11.764;2023-03-01T11:09:12;18.30;;;9.30;;
66129;SDS011;52930;51.464;11.764;2023-03-01T11:11:38;19.52;;;8.95;;
66129;SDS011;52930;51.464;11.764;2023-03-01T11:16:49;17.50;;;7.63;;
66129;SDS011;52930;51.464;11.764;2023-03-01T11:19:23;19.92;;;8.23;;
66129;SDS011;52930;51.464;11.764;2023-03-01T11:21:59;15.43;;;7.30;;
66129;SDS011;52930;51.464;11.764;2023-03-01T11:24:46;19.73;;;7.85;;
66129;SDS011;52930;51.464;11.764;2023-03-01T11:30:07;22.67;;;8.85;;
66129;SDS011;52930;51.464;11.764;2023-03-01T11:32:42;15.63;;;6.53;;
66129;SDS011;52930;51.464;11.764;2023-03-01T11:35:16;16.95;;;8.10;;
66129;SDS011;52930;51.464;11.764;2023-03-01T11:40:22;16.25;;;7.22;;
66129;SDS011;52930;51.464;11.764;2023-03-01T11:42:59;16.30;;;6.70;;
66129;SDS011;52930;51.464;11.764;2023-03-01T11:45:31;13.90;;;6.40;;
66129;SDS011;52930;51.464;11.764;2023-03-01T11:50:49;13.82;;;6.03;;
66129;SDS011;52930;51.464;11.764;2023-03-01T11:55:56;14.60;;;5.85;;
66129;SDS011;52930;51.464;11.764;2023-03-01T12:01:32;18.52;;;8.65;;
66129;SDS011;52930;51.464;11.764;2023-03-01T12:04:47;16.17;;;7.55;;
66129;SDS011;52930;51.464;11.764;2023-03-01T12:07:20;13.88;;;6.15;;
66129;SDS011;52930;51.464;11.764;2023-03-01T12:10:21;14.60;;;6.57;;
66129;SDS011;52930;51.464;11.764;2023-03-01T12:20:54;14.65;;;6.00;;
66129;SDS011;52930;51.464;11.764;2023-03-01T12:23:38;13.30;;;5.30;;
66129;SDS011;52930;51.464;11.764;2023-03-01T12:31:39;15.38;;;5.88;;
66129;SDS011;52930;51.464;11.764;2023-03-01T12:34:28;12.65;;;5.65;;
66129;SDS011;52930;51.464;11.764;2023-03-01T12:50:49;12.57;;;5.17;;
66129;SDS011;52930;51.464;11.764;2023-03-01T12:53:22;11.63;;;5.38;;
66129;SDS011;52930;51.464;11.764;2023-03-01T12:55:49;13.35;;;5.40;;
66129;SDS011;52930;51.464;11.764;2023-03-01T13:07:11;11.35;;;4.28;;
66129;SDS011;52930;51.464;11.764;2023-03-01T13:11:46;11.57;;;5.03;;
66129;SDS011;52930;51.464;11.764;2023-03-01T13:16:46;12.82;;;4.90;;
66129;SDS011;52930;51.464;11.764;2023-03-01T13:19:17;12.25;;;4.95;;
66129;SDS011;52930;51.464;11.764;2023-03-01T13:21:43;11.83;;;4.47;;
66129;SDS011;52930;51.464;11.764;2023-03-01T13:24:23;11.18;;;4.57;;
66129;SDS011;52930;51.464;11.764;2023-03-01T13:32:27;10.60;;;4.60;;
66129;SDS011;52930;51.464;11.764;2023-03-01T13:35:04;12.03;;;4.43;;
66129;SDS011;52930;51.464;11.764;2023-03-01T13:37:50;11.80;;;4.18;;
66129;SDS011;52930;51.464;11.764;2023-03-01T13:42:47;9.40;;;3.30;;
66129;SDS011;52930;51.464;11.764;2023-03-01T13:45:14;9.68;;;3.42;;
66129;SDS011;52930;51.464;11.764;2023-03-01T13:47:41;9.80;;;4.13;;
66129;SDS011;52930;51.464;11.764;2023-03-01T13:50:15;11.32;;;3.65;;
66129;SDS011;52930;51.464;11.764;2023-03-01T13:52:47;9.27;;;3.50;;
66129;SDS011;52930;51.464;11.764;2023-03-01T13:55:16;9.88;;;3.72;;
66129;SDS011;52930;51.464;11.764;2023-03-01T13:57:50;8.70;;;3.60;;
66129;SDS011;52930;51.464;11.764;2023-03-01T14:00:33;7.88;;;3.65;;
66129;SDS011;52930;51.464;11.764;2023-03-01T14:05:29;7.93;;;3.27;;
66129;SDS011;52930;51.464;11.764;2023-03-01T14:07:55;9.38;;;3.45;;
66129;SDS011;52930;51.464;11.764;2023-03-01T14:10:21;9.17;;;3.80;;
66129;SDS011;52930;51.464;11.764;2023-03-01T14:13:48;11.10;;;3.63;;
66129;SDS011;52930;51.464;11.764;2023-03-01T14:18:42;9.38;;;3.83;;
66129;SDS011;52930;51.464;11.764;2023-03-01T14:21:33;10.95;;;3.78;;
66129;SDS011;52930;51.464;11.764;2023-03-01T14:24:00;10.35;;;5.20;;
66129;SDS011;52930;51.464;11.764;2023-03-01T14:26:25;10.10;;;4.23;;
66129;SDS011;52930;51.464;11.764;2023-03-01T14:28:50;11.77;;;4.43;;
66129;SDS011;52930;51.464;11.764;2023-03-01T14:34:04;7.95;;;2.88;;
66129;SDS011;52930;51.464;11.764;2023-03-01T14:36:31;9.85;;;3.58;;
66129;SDS011;52930;51.464;11.764;2023-03-01T14:38:58;10.93;;;4.10;;
66129;SDS011;52930;51.464;11.764;2023-03-01T14:41:29;10.80;;;4.45;;
66129;SDS011;52930;51.464;11.764;2023-03-01T14:43:58;9.03;;;3.50;;
66129;SDS011;52930;51.464;11.764;2023-03-01T14:46:36;10.02;;;4.10;;
66129;SDS011;52930;51.464;11.764;2023-03-01T14:49:22;8.30;;;3.20;;
66129;SDS011;52930;51.464;11.764;2023-03-01T14:51:53;8.35;;;3.10;;
66129;SDS011;52930;51.464;11.764;2023-03-01T14:57:02;9.50;;;3.17;;
66129;SDS011;52930;51.464;11.764;2023-03-01T14:59:28;10.20;;;4.65;;
66129;SDS011;52930;51.464;11.764;2023-03-01T15:01:54;11.20;;;3.73;;
66129;SDS011;52930;51.464;11.764;2023-03-01T15:04:22;11.20;;;4.32;;
66129;SDS011;52930;51.464;11.764;2023-03-01T15:06:52;11.00;;;4.57;;
66129;SDS011;52930;51.464;11.764;2023-03-01T15:09:18;9.18;;;4.38;;
66129;SDS011;52930;51.464;11.764;2023-03-01T15:11:44;7.53;;;3.20;;
66129;SDS011;52930;51.464;11.764;2023-03-01T15:14:25;8.47;;;3.70;;
66129;SDS011;52930;51.464;11.764;2023-03-01T15:17:04;9.88;;;3.70;;
66129;SDS011;52930;51.464;11.764;2023-03-01T15:19:29;13.43;;;5.90;;
66129;SDS011;52930;51.464;11.764;2023-03-01T15:21:55;10.13;;;4.20;;
66129;SDS011;52930;51.464;11.764;2023-03-01T15:24:22;9.82;;;3.80;;
66129;SDS011;52930;51.464;11.764;2023-03-01T15:26:56;9.47;;;3.23;;
66129;SDS011;52930;51.464;11.764;2023-03-01T15:29:27;12.77;;;4.15;;
66129;SDS011;52930;51.464;11.764;2023-03-01T15:32:01;9.57;;;4.22;;
66129;SDS011;52930;51.464;11.764;2023-03-01T15:37:02;11.98;;;4.05;;
66129;SDS011;52930;51.464;11.764;2023-03-01T15:42:41;9.30;;;3.50;;
66129;SDS011;52930;51.464;11.764;2023-03-01T15:45:10;9.07;;;3.63;;
66129;SDS011;52930;51.464;11.764;2023-03-01T15:47:48;8.52;;;3.55;;
66129;SDS011;52930;51.464;11.764;2023-03-01T15:52:53;9.23;;;3.23;;
66129;SDS011;52930;51.464;11.764;2023-03-01T15:55:20;8.50;;;3.53;;
66129;SDS011;52930;51.464;11.764;2023-03-01T15:57:47;8.95;;;3.88;;
66129;SDS011;52930;51.464;11.764;2023-03-01T16:00:14;9.68;;;3.67;;
66129;SDS011;52930;51.464;11.764;2023-03-01T16:02:40;10.73;;;3.93;;
66129;SDS011;52930;51.464;11.764;2023-03-01T16:05:15;10.23;;;4.43;;
66129;SDS011;52930;51.464;11.764;2023-03-01T16:07:44;11.68;;;5.10;;
66129;SDS011;52930;51.464;11.764;2023-03-01T16:10:09;10.57;;;4.00;;
66129;SDS011;52930;51.464;11.764;2023-03-01T16:12:35;22.20;;;8.13;;